Hewitt, Minnesota
Current Conditions -  °F | °C
As of 6:15 PM on Wednesday 22 Oct 2014 (Local Time) from KADC Reporting Station
Broken Clouds Broken Clouds  
Wind Chill: 59°   Ceiling: 4600
Heat Index: 59°   Visibility: 10mi
Dew Point: 45°   Wind: 12mph
Humidity: 59%   Direction: 160°SSE
Pressure: 29.91"   Gusts: NA
Location:  46.33°N, 95.09°W
Report Text: KADC 222315Z AUTO 16010KT 10SM BKN046 15/07 A2991 RMK AO2
Loading
Personal Weather Stations






























Interactive Weather Map
Tropical Storm Tracking
New forecast layout! Learn more

10-Day Weather Forecast

Advertisements
Track Severe Weather on mobile